sensor_id;sensor_type;location;lat;lon;timestamp;P1;durP1;ratioP1;P2;durP2;ratioP2
20870;SDS011;10595;51.218;3.452;2022-07-24T00:00:13;22.50;;;15.90;;
20870;SDS011;10595;51.218;3.452;2022-07-24T00:01:05;23.87;;;16.67;;
20870;SDS011;10595;51.218;3.452;2022-07-24T00:01:56;23.87;;;16.63;;
20870;SDS011;10595;51.218;3.452;2022-07-24T00:02:47;21.80;;;16.23;;
20870;SDS011;10595;51.218;3.452;2022-07-24T00:03:38;29.30;;;17.60;;
20870;SDS011;10595;51.218;3.452;2022-07-24T00:04:29;25.50;;;16.93;;
20870;SDS011;10595;51.218;3.452;2022-07-24T00:05:20;22.27;;;16.33;;
20870;SDS011;10595;51.218;3.452;2022-07-24T00:06:11;24.17;;;16.97;;
20870;SDS011;10595;51.218;3.452;2022-07-24T00:07:02;23.47;;;15.43;;
20870;SDS011;10595;51.218;3.452;2022-07-24T00:07:54;22.77;;;16.43;;
20870;SDS011;10595;51.218;3.452;2022-07-24T00:08:45;24.70;;;16.20;;
20870;SDS011;10595;51.218;3.452;2022-07-24T00:09:37;24.17;;;16.83;;
20870;SDS011;10595;51.218;3.452;2022-07-24T00:10:28;24.87;;;16.33;;
20870;SDS011;10595;51.218;3.452;2022-07-24T00:11:19;24.97;;;16.57;;
20870;SDS011;10595;51.218;3.452;2022-07-24T00:12:12;24.07;;;16.33;;
20870;SDS011;10595;51.218;3.452;2022-07-24T00:13:03;21.00;;;15.20;;
20870;SDS011;10595;51.218;3.452;2022-07-24T00:13:54;23.77;;;15.50;;
20870;SDS011;10595;51.218;3.452;2022-07-24T00:14:45;28.20;;;16.63;;
20870;SDS011;10595;51.218;3.452;2022-07-24T00:15:38;23.67;;;16.67;;
20870;SDS011;10595;51.218;3.452;2022-07-24T00:16:29;23.60;;;15.33;;
20870;SDS011;10595;51.218;3.452;2022-07-24T00:17:20;21.93;;;15.07;;
20870;SDS011;10595;51.218;3.452;2022-07-24T00:18:11;22.77;;;15.67;;
20870;SDS011;10595;51.218;3.452;2022-07-24T00:19:02;22.87;;;15.63;;
20870;SDS011;10595;51.218;3.452;2022-07-24T00:19:53;22.63;;;15.60;;
20870;SDS011;10595;51.218;3.452;2022-07-24T00:20:44;22.43;;;15.20;;
20870;SDS011;10595;51.218;3.452;2022-07-24T00:21:36;21.27;;;14.93;;
20870;SDS011;10595;51.218;3.452;2022-07-24T00:22:28;24.80;;;15.60;;
20870;SDS011;10595;51.218;3.452;2022-07-24T00:23:18;22.73;;;15.47;;
20870;SDS011;10595;51.218;3.452;2022-07-24T00:24:11;27.97;;;15.53;;
20870;SDS011;10595;51.218;3.452;2022-07-24T00:25:02;19.60;;;14.20;;
20870;SDS011;10595;51.218;3.452;2022-07-24T00:26:12;22.00;;;14.60;;
20870;SDS011;10595;51.218;3.452;2022-07-24T00:27:03;23.03;;;15.10;;
20870;SDS011;10595;51.218;3.452;2022-07-24T00:27:55;22.83;;;15.17;;
20870;SDS011;10595;51.218;3.452;2022-07-24T00:28:46;24.17;;;14.33;;
20870;SDS011;10595;51.218;3.452;2022-07-24T00:29:38;21.03;;;14.30;;
20870;SDS011;10595;51.218;3.452;2022-07-24T00:30:29;19.60;;;14.10;;
20870;SDS011;10595;51.218;3.452;2022-07-24T00:31:20;20.50;;;14.30;;
20870;SDS011;10595;51.218;3.452;2022-07-24T00:32:11;24.43;;;14.57;;
20870;SDS011;10595;51.218;3.452;2022-07-24T00:33:02;19.73;;;14.20;;
20870;SDS011;10595;51.218;3.452;2022-07-24T00:33:53;21.57;;;13.87;;
20870;SDS011;10595;51.218;3.452;2022-07-24T00:34:45;19.80;;;14.47;;
20870;SDS011;10595;51.218;3.452;2022-07-24T00:35:35;23.10;;;15.30;;
20870;SDS011;10595;51.218;3.452;2022-07-24T00:36:27;17.27;;;14.17;;
20870;SDS011;10595;51.218;3.452;2022-07-24T00:37:18;22.63;;;14.50;;
20870;SDS011;10595;51.218;3.452;2022-07-24T00:38:10;20.63;;;14.03;;
20870;SDS011;10595;51.218;3.452;2022-07-24T00:39:00;20.13;;;14.20;;
20870;SDS011;10595;51.218;3.452;2022-07-24T00:39:52;21.40;;;14.07;;
20870;SDS011;10595;51.218;3.452;2022-07-24T00:40:43;20.00;;;13.93;;
20870;SDS011;10595;51.218;3.452;2022-07-24T00:41:34;21.53;;;14.17;;
20870;SDS011;10595;51.218;3.452;2022-07-24T00:42:25;20.57;;;13.33;;
20870;SDS011;10595;51.218;3.452;2022-07-24T00:43:18;18.97;;;13.33;;
20870;SDS011;10595;51.218;3.452;2022-07-24T00:44:10;16.87;;;13.20;;
20870;SDS011;10595;51.218;3.452;2022-07-24T00:45:02;20.00;;;12.73;;
20870;SDS011;10595;51.218;3.452;2022-07-24T00:45:53;21.93;;;13.53;;
20870;SDS011;10595;51.218;3.452;2022-07-24T00:46:45;18.80;;;13.13;;
20870;SDS011;10595;51.218;3.452;2022-07-24T00:47:35;17.47;;;12.13;;
20870;SDS011;10595;51.218;3.452;2022-07-24T00:48:27;19.27;;;13.00;;
20870;SDS011;10595;51.218;3.452;2022-07-24T00:49:19;19.77;;;12.67;;
20870;SDS011;10595;51.218;3.452;2022-07-24T00:50:10;18.93;;;13.00;;
20870;SDS011;10595;51.218;3.452;2022-07-24T00:51:02;17.57;;;12.00;;
20870;SDS011;10595;51.218;3.452;2022-07-24T00:51:52;17.97;;;12.13;;
20870;SDS011;10595;51.218;3.452;2022-07-24T00:52:44;19.27;;;12.60;;
20870;SDS011;10595;51.218;3.452;2022-07-24T00:53:35;17.60;;;12.93;;
20870;SDS011;10595;51.218;3.452;2022-07-24T00:54:26;15.83;;;11.83;;
20870;SDS011;10595;51.218;3.452;2022-07-24T00:55:17;15.90;;;12.00;;
20870;SDS011;10595;51.218;3.452;2022-07-24T00:56:08;14.33;;;11.67;;
20870;SDS011;10595;51.218;3.452;2022-07-24T00:56:59;16.40;;;11.73;;
20870;SDS011;10595;51.218;3.452;2022-07-24T00:57:50;17.10;;;12.33;;
20870;SDS011;10595;51.218;3.452;2022-07-24T00:58:42;18.10;;;12.20;;
20870;SDS011;10595;51.218;3.452;2022-07-24T00:59:34;16.37;;;11.00;;
20870;SDS011;10595;51.218;3.452;2022-07-24T01:00:24;17.33;;;11.90;;
20870;SDS011;10595;51.218;3.452;2022-07-24T01:01:16;16.37;;;12.10;;
20870;SDS011;10595;51.218;3.452;2022-07-24T01:02:07;14.50;;;10.70;;
20870;SDS011;10595;51.218;3.452;2022-07-24T01:03:02;18.23;;;12.33;;
20870;SDS011;10595;51.218;3.452;2022-07-24T01:03:52;14.97;;;11.90;;
20870;SDS011;10595;51.218;3.452;2022-07-24T01:04:44;16.17;;;11.87;;
20870;SDS011;10595;51.218;3.452;2022-07-24T01:05:34;17.07;;;12.17;;
20870;SDS011;10595;51.218;3.452;2022-07-24T01:06:26;18.50;;;12.23;;
20870;SDS011;10595;51.218;3.452;2022-07-24T01:07:18;19.30;;;12.47;;
20870;SDS011;10595;51.218;3.452;2022-07-24T01:08:09;17.53;;;11.87;;
20870;SDS011;10595;51.218;3.452;2022-07-24T01:09:01;16.40;;;12.30;;
20870;SDS011;10595;51.218;3.452;2022-07-24T01:09:51;16.63;;;11.77;;
20870;SDS011;10595;51.218;3.452;2022-07-24T01:10:43;15.67;;;11.67;;
20870;SDS011;10595;51.218;3.452;2022-07-24T01:11:34;18.90;;;13.10;;
20870;SDS011;10595;51.218;3.452;2022-07-24T01:12:26;18.63;;;12.80;;
20870;SDS011;10595;51.218;3.452;2022-07-24T01:13:17;14.70;;;12.20;;
20870;SDS011;10595;51.218;3.452;2022-07-24T01:14:10;19.70;;;12.33;;
20870;SDS011;10595;51.218;3.452;2022-07-24T01:15:01;16.73;;;12.93;;
20870;SDS011;10595;51.218;3.452;2022-07-24T01:15:53;19.47;;;13.07;;
20870;SDS011;10595;51.218;3.452;2022-07-24T01:16:44;16.00;;;12.00;;
20870;SDS011;10595;51.218;3.452;2022-07-24T01:17:37;17.93;;;13.27;;
20870;SDS011;10595;51.218;3.452;2022-07-24T01:18:27;16.23;;;12.40;;
20870;SDS011;10595;51.218;3.452;2022-07-24T01:19:19;17.17;;;12.43;;
20870;SDS011;10595;51.218;3.452;2022-07-24T01:20:10;17.33;;;13.00;;
20870;SDS011;10595;51.218;3.452;2022-07-24T01:21:03;21.27;;;12.90;;
20870;SDS011;10595;51.218;3.452;2022-07-24T01:21:54;16.37;;;12.20;;
20870;SDS011;10595;51.218;3.452;2022-07-24T01:22:45;16.00;;;12.13;;
20870;SDS011;10595;51.218;3.452;2022-07-24T01:23:36;17.53;;;12.40;;
20870;SDS011;10595;51.218;3.452;2022-07-24T01:24:28;14.80;;;10.90;;
20870;SDS011;10595;51.218;3.452;2022-07-24T01:25:18;16.63;;;11.77;;
20870;SDS011;10595;51.218;3.452;2022-07-24T01:26:10;15.77;;;11.47;;
20870;SDS011;10595;51.218;3.452;2022-07-24T01:27:00;16.70;;;11.47;;
20870;SDS011;10595;51.218;3.452;2022-07-24T01:27:52;17.53;;;11.37;;
20870;SDS011;10595;51.218;3.452;2022-07-24T01:28:43;13.50;;;10.23;;
20870;SDS011;10595;51.218;3.452;2022-07-24T01:29:34;13.80;;;11.10;;
20870;SDS011;10595;51.218;3.452;2022-07-24T01:30:25;16.00;;;11.40;;
20870;SDS011;10595;51.218;3.452;2022-07-24T01:31:16;14.83;;;10.30;;
20870;SDS011;10595;51.218;3.452;2022-07-24T01:32:07;16.97;;;10.90;;
20870;SDS011;10595;51.218;3.452;2022-07-24T01:32:59;14.70;;;10.23;;
20870;SDS011;10595;51.218;3.452;2022-07-24T01:33:50;14.37;;;10.40;;
20870;SDS011;10595;51.218;3.452;2022-07-24T01:34:43;14.03;;;10.27;;
20870;SDS011;10595;51.218;3.452;2022-07-24T01:35:34;13.40;;;9.80;;
20870;SDS011;10595;51.218;3.452;2022-07-24T01:36:27;15.80;;;10.33;;
20870;SDS011;10595;51.218;3.452;2022-07-24T01:37:17;13.67;;;10.00;;
20870;SDS011;10595;51.218;3.452;2022-07-24T01:38:10;14.63;;;10.47;;
20870;SDS011;10595;51.218;3.452;2022-07-24T01:39:03;12.83;;;9.93;;
20870;SDS011;10595;51.218;3.452;2022-07-24T01:39:56;14.23;;;9.63;;
20870;SDS011;10595;51.218;3.452;2022-07-24T01:40:48;15.93;;;9.40;;
20870;SDS011;10595;51.218;3.452;2022-07-24T01:41:40;11.80;;;9.40;;
20870;SDS011;10595;51.218;3.452;2022-07-24T01:42:50;12.37;;;9.80;;
20870;SDS011;10595;51.218;3.452;2022-07-24T01:43:42;12.27;;;8.77;;
20870;SDS011;10595;51.218;3.452;2022-07-24T01:44:33;11.80;;;9.57;;
20870;SDS011;10595;51.218;3.452;2022-07-24T01:45:26;11.87;;;9.23;;
20870;SDS011;10595;51.218;3.452;2022-07-24T01:46:17;12.70;;;8.80;;
20870;SDS011;10595;51.218;3.452;2022-07-24T01:47:09;14.33;;;9.77;;
20870;SDS011;10595;51.218;3.452;2022-07-24T01:48:03;14.07;;;9.60;;
20870;SDS011;10595;51.218;3.452;2022-07-24T01:48:54;12.33;;;9.13;;
20870;SDS011;10595;51.218;3.452;2022-07-24T01:49:45;13.13;;;9.17;;
20870;SDS011;10595;51.218;3.452;2022-07-24T01:50:37;19.73;;;10.80;;
20870;SDS011;10595;51.218;3.452;2022-07-24T01:51:29;12.37;;;9.73;;
20870;SDS011;10595;51.218;3.452;2022-07-24T01:52:21;14.43;;;10.40;;
20870;SDS011;10595;51.218;3.452;2022-07-24T01:53:15;14.93;;;10.43;;
20870;SDS011;10595;51.218;3.452;2022-07-24T01:54:08;14.47;;;10.43;;
20870;SDS011;10595;51.218;3.452;2022-07-24T01:55:00;17.20;;;10.13;;
20870;SDS011;10595;51.218;3.452;2022-07-24T01:55:56;14.33;;;10.60;;
20870;SDS011;10595;51.218;3.452;2022-07-24T01:56:47;12.17;;;9.30;;
20870;SDS011;10595;51.218;3.452;2022-07-24T01:57:39;15.53;;;9.47;;
20870;SDS011;10595;51.218;3.452;2022-07-24T01:58:30;14.63;;;9.97;;
20870;SDS011;10595;51.218;3.452;2022-07-24T01:59:22;12.47;;;9.17;;
20870;SDS011;10595;51.218;3.452;2022-07-24T02:00:12;11.73;;;8.83;;
20870;SDS011;10595;51.218;3.452;2022-07-24T02:01:05;12.40;;;9.57;;
20870;SDS011;10595;51.218;3.452;2022-07-24T02:01:56;15.10;;;9.80;;
20870;SDS011;10595;51.218;3.452;2022-07-24T02:02:48;12.27;;;8.87;;
20870;SDS011;10595;51.218;3.452;2022-07-24T02:03:38;12.87;;;9.00;;
20870;SDS011;10595;51.218;3.452;2022-07-24T02:04:30;12.13;;;9.17;;
20870;SDS011;10595;51.218;3.452;2022-07-24T02:05:21;12.27;;;8.80;;
20870;SDS011;10595;51.218;3.452;2022-07-24T02:06:12;9.40;;;7.97;;
20870;SDS011;10595;51.218;3.452;2022-07-24T02:07:04;11.37;;;8.57;;
20870;SDS011;10595;51.218;3.452;2022-07-24T02:07:57;12.93;;;9.80;;
20870;SDS011;10595;51.218;3.452;2022-07-24T02:08:48;10.97;;;8.13;;
20870;SDS011;10595;51.218;3.452;2022-07-24T02:09:40;13.10;;;7.97;;
20870;SDS011;10595;51.218;3.452;2022-07-24T02:10:31;11.97;;;8.73;;
20870;SDS011;10595;51.218;3.452;2022-07-24T02:11:23;9.40;;;7.80;;
20870;SDS011;10595;51.218;3.452;2022-07-24T02:12:14;9.43;;;7.80;;
20870;SDS011;10595;51.218;3.452;2022-07-24T02:13:08;11.13;;;7.57;;
20870;SDS011;10595;51.218;3.452;2022-07-24T02:13:58;12.83;;;8.23;;
20870;SDS011;10595;51.218;3.452;2022-07-24T02:14:51;10.70;;;7.90;;
20870;SDS011;10595;51.218;3.452;2022-07-24T02:15:41;9.13;;;7.57;;
20870;SDS011;10595;51.218;3.452;2022-07-24T02:16:33;11.90;;;7.80;;
20870;SDS011;10595;51.218;3.452;2022-07-24T02:17:24;10.53;;;7.80;;
20870;SDS011;10595;51.218;3.452;2022-07-24T02:18:15;9.13;;;7.40;;
20870;SDS011;10595;51.218;3.452;2022-07-24T02:19:06;12.13;;;8.10;;
20870;SDS011;10595;51.218;3.452;2022-07-24T02:19:59;9.20;;;7.47;;
20870;SDS011;10595;51.218;3.452;2022-07-24T02:20:50;11.23;;;7.57;;
20870;SDS011;10595;51.218;3.452;2022-07-24T02:21:44;9.63;;;7.33;;
20870;SDS011;10595;51.218;3.452;2022-07-24T02:22:36;8.93;;;7.10;;
20870;SDS011;10595;51.218;3.452;2022-07-24T02:23:28;9.47;;;7.10;;
20870;SDS011;10595;51.218;3.452;2022-07-24T02:24:21;14.40;;;7.37;;
20870;SDS011;10595;51.218;3.452;2022-07-24T02:25:13;10.00;;;6.60;;
20870;SDS011;10595;51.218;3.452;2022-07-24T02:26:04;11.37;;;7.17;;
20870;SDS011;10595;51.218;3.452;2022-07-24T02:26:55;10.30;;;6.87;;
20870;SDS011;10595;51.218;3.452;2022-07-24T02:27:46;9.50;;;6.70;;
20870;SDS011;10595;51.218;3.452;2022-07-24T02:28:37;10.73;;;6.33;;
20870;SDS011;10595;51.218;3.452;2022-07-24T02:29:28;10.07;;;7.07;;
20870;SDS011;10595;51.218;3.452;2022-07-24T02:30:21;9.63;;;6.50;;
20870;SDS011;10595;51.218;3.452;2022-07-24T02:31:12;9.70;;;6.40;;
20870;SDS011;10595;51.218;3.452;2022-07-24T02:32:05;8.70;;;6.70;;
20870;SDS011;10595;51.218;3.452;2022-07-24T02:32:56;10.17;;;6.63;;
20870;SDS011;10595;51.218;3.452;2022-07-24T02:33:48;10.03;;;7.10;;
20870;SDS011;10595;51.218;3.452;2022-07-24T02:34:38;9.83;;;7.23;;
20870;SDS011;10595;51.218;3.452;2022-07-24T02:35:30;10.63;;;6.77;;
20870;SDS011;10595;51.218;3.452;2022-07-24T02:36:21;8.03;;;6.60;;
20870;SDS011;10595;51.218;3.452;2022-07-24T02:37:12;9.37;;;6.87;;
20870;SDS011;10595;51.218;3.452;2022-07-24T02:38:06;10.33;;;6.90;;
20870;SDS011;10595;51.218;3.452;2022-07-24T02:38:58;10.70;;;7.60;;
20870;SDS011;10595;51.218;3.452;2022-07-24T02:39:49;9.40;;;7.30;;
20870;SDS011;10595;51.218;3.452;2022-07-24T02:40:40;9.30;;;6.73;;
20870;SDS011;10595;51.218;3.452;2022-07-24T02:41:31;9.77;;;7.33;;
20870;SDS011;10595;51.218;3.452;2022-07-24T02:42:23;8.80;;;6.53;;
20870;SDS011;10595;51.218;3.452;2022-07-24T02:43:15;15.20;;;7.67;;
20870;SDS011;10595;51.218;3.452;2022-07-24T02:44:10;11.37;;;7.67;;
20870;SDS011;10595;51.218;3.452;2022-07-24T02:45:00;11.03;;;7.87;;
20870;SDS011;10595;51.218;3.452;2022-07-24T02:45:52;11.80;;;7.73;;
20870;SDS011;10595;51.218;3.452;2022-07-24T02:46:42;10.93;;;7.50;;
20870;SDS011;10595;51.218;3.452;2022-07-24T02:47:34;11.70;;;8.20;;
20870;SDS011;10595;51.218;3.452;2022-07-24T02:48:24;10.50;;;7.63;;
20870;SDS011;10595;51.218;3.452;2022-07-24T02:49:16;14.53;;;8.57;;
20870;SDS011;10595;51.218;3.452;2022-07-24T02:50:19;9.90;;;8.50;;
20870;SDS011;10595;51.218;3.452;2022-07-24T02:51:10;10.17;;;7.47;;
20870;SDS011;10595;51.218;3.452;2022-07-24T02:52:01;11.20;;;7.27;;
20870;SDS011;10595;51.218;3.452;2022-07-24T02:52:55;10.87;;;8.10;;
20870;SDS011;10595;51.218;3.452;2022-07-24T02:53:47;11.13;;;7.33;;
20870;SDS011;10595;51.218;3.452;2022-07-24T02:54:38;11.10;;;7.87;;
20870;SDS011;10595;51.218;3.452;2022-07-24T02:55:29;10.43;;;7.87;;
20870;SDS011;10595;51.218;3.452;2022-07-24T02:56:20;9.80;;;7.20;;
20870;SDS011;10595;51.218;3.452;2022-07-24T02:57:11;14.83;;;8.70;;
20870;SDS011;10595;51.218;3.452;2022-07-24T02:58:03;13.93;;;8.63;;
20870;SDS011;10595;51.218;3.452;2022-07-24T02:58:53;12.83;;;7.73;;
20870;SDS011;10595;51.218;3.452;2022-07-24T02:59:45;12.40;;;7.97;;
20870;SDS011;10595;51.218;3.452;2022-07-24T03:00:40;10.50;;;7.70;;
20870;SDS011;10595;51.218;3.452;2022-07-24T03:01:31;9.63;;;7.33;;
20870;SDS011;10595;51.218;3.452;2022-07-24T03:02:23;12.13;;;8.37;;
20870;SDS011;10595;51.218;3.452;2022-07-24T03:03:14;12.53;;;7.97;;
20870;SDS011;10595;51.218;3.452;2022-07-24T03:04:05;9.70;;;7.47;;
20870;SDS011;10595;51.218;3.452;2022-07-24T03:04:57;12.40;;;7.80;;
20870;SDS011;10595;51.218;3.452;2022-07-24T03:05:47;11.23;;;7.93;;
20870;SDS011;10595;51.218;3.452;2022-07-24T03:06:39;12.23;;;8.47;;
20870;SDS011;10595;51.218;3.452;2022-07-24T03:07:29;11.87;;;8.13;;
20870;SDS011;10595;51.218;3.452;2022-07-24T03:08:21;11.87;;;8.23;;
20870;SDS011;10595;51.218;3.452;2022-07-24T03:09:13;13.27;;;8.17;;
20870;SDS011;10595;51.218;3.452;2022-07-24T03:10:05;13.17;;;8.93;;
20870;SDS011;10595;51.218;3.452;2022-07-24T03:10:56;10.17;;;7.97;;
20870;SDS011;10595;51.218;3.452;2022-07-24T03:11:47;9.83;;;7.97;;
20870;SDS011;10595;51.218;3.452;2022-07-24T03:12:39;9.63;;;8.03;;
20870;SDS011;10595;51.218;3.452;2022-07-24T03:13:30;10.07;;;7.87;;
20870;SDS011;10595;51.218;3.452;2022-07-24T03:14:22;12.40;;;8.77;;
20870;SDS011;10595;51.218;3.452;2022-07-24T03:15:17;12.87;;;9.53;;
20870;SDS011;10595;51.218;3.452;2022-07-24T03:16:07;12.20;;;8.50;;
20870;SDS011;10595;51.218;3.452;2022-07-24T03:17:01;11.73;;;8.17;;
20870;SDS011;10595;51.218;3.452;2022-07-24T03:17:53;10.03;;;8.47;;
20870;SDS011;10595;51.218;3.452;2022-07-24T03:18:45;10.90;;;8.30;;
20870;SDS011;10595;51.218;3.452;2022-07-24T03:19:38;13.97;;;8.97;;
20870;SDS011;10595;51.218;3.452;2022-07-24T03:20:33;10.57;;;8.53;;
20870;SDS011;10595;51.218;3.452;2022-07-24T03:21:24;11.93;;;8.17;;
20870;SDS011;10595;51.218;3.452;2022-07-24T03:22:15;14.30;;;8.73;;
20870;SDS011;10595;51.218;3.452;2022-07-24T03:23:06;11.70;;;8.70;;
20870;SDS011;10595;51.218;3.452;2022-07-24T03:23:57;15.37;;;9.57;;
20870;SDS011;10595;51.218;3.452;2022-07-24T03:24:49;14.37;;;8.13;;
20870;SDS011;10595;51.218;3.452;2022-07-24T03:25:40;12.27;;;9.30;;
20870;SDS011;10595;51.218;3.452;2022-07-24T03:26:31;14.47;;;9.50;;
20870;SDS011;10595;51.218;3.452;2022-07-24T03:27:22;12.37;;;9.03;;
20870;SDS011;10595;51.218;3.452;2022-07-24T03:28:13;12.60;;;9.80;;
20870;SDS011;10595;51.218;3.452;2022-07-24T03:29:04;10.80;;;9.27;;
20870;SDS011;10595;51.218;3.452;2022-07-24T03:29:55;14.00;;;9.80;;
20870;SDS011;10595;51.218;3.452;2022-07-24T03:30:46;12.90;;;8.80;;
20870;SDS011;10595;51.218;3.452;2022-07-24T03:31:37;13.93;;;9.73;;
20870;SDS011;10595;51.218;3.452;2022-07-24T03:32:28;14.20;;;9.87;;
20870;SDS011;10595;51.218;3.452;2022-07-24T03:33:19;13.33;;;9.73;;
20870;SDS011;10595;51.218;3.452;2022-07-24T03:34:13;14.70;;;10.30;;
20870;SDS011;10595;51.218;3.452;2022-07-24T03:35:04;12.80;;;10.00;;
20870;SDS011;10595;51.218;3.452;2022-07-24T03:35:56;17.57;;;10.77;;
20870;SDS011;10595;51.218;3.452;2022-07-24T03:36:46;12.80;;;10.37;;
20870;SDS011;10595;51.218;3.452;2022-07-24T03:37:38;14.40;;;10.13;;
20870;SDS011;10595;51.218;3.452;2022-07-24T03:38:29;16.90;;;10.77;;
20870;SDS011;10595;51.218;3.452;2022-07-24T03:39:20;19.77;;;10.60;;
20870;SDS011;10595;51.218;3.452;2022-07-24T03:40:12;14.60;;;10.57;;
20870;SDS011;10595;51.218;3.452;2022-07-24T03:41:04;15.17;;;10.63;;
20870;SDS011;10595;51.218;3.452;2022-07-24T03:41:54;14.70;;;11.13;;
20870;SDS011;10595;51.218;3.452;2022-07-24T03:42:46;12.23;;;10.47;;
20870;SDS011;10595;51.218;3.452;2022-07-24T03:43:36;13.10;;;10.87;;
20870;SDS011;10595;51.218;3.452;2022-07-24T03:44:28;14.30;;;9.97;;
20870;SDS011;10595;51.218;3.452;2022-07-24T03:45:21;13.83;;;9.90;;
20870;SDS011;10595;51.218;3.452;2022-07-24T03:46:13;14.87;;;9.80;;
20870;SDS011;10595;51.218;3.452;2022-07-24T03:47:04;14.67;;;10.67;;
20870;SDS011;10595;51.218;3.452;2022-07-24T03:47:56;15.77;;;11.40;;
20870;SDS011;10595;51.218;3.452;2022-07-24T03:48:47;14.77;;;9.73;;
20870;SDS011;10595;51.218;3.452;2022-07-24T03:49:39;14.60;;;10.87;;
20870;SDS011;10595;51.218;3.452;2022-07-24T03:50:29;12.33;;;9.87;;
20870;SDS011;10595;51.218;3.452;2022-07-24T03:51:21;13.47;;;10.80;;
20870;SDS011;10595;51.218;3.452;2022-07-24T03:52:12;15.50;;;10.67;;
20870;SDS011;10595;51.218;3.452;2022-07-24T03:53:03;15.57;;;11.23;;
20870;SDS011;10595;51.218;3.452;2022-07-24T03:53:54;14.17;;;10.97;;
20870;SDS011;10595;51.218;3.452;2022-07-24T03:54:45;15.27;;;11.10;;
20870;SDS011;10595;51.218;3.452;2022-07-24T03:55:37;15.43;;;11.07;;
20870;SDS011;10595;51.218;3.452;2022-07-24T03:56:29;15.17;;;11.63;;
20870;SDS011;10595;51.218;3.452;2022-07-24T03:57:19;17.83;;;11.93;;
20870;SDS011;10595;51.218;3.452;2022-07-24T03:58:11;15.87;;;10.47;;
20870;SDS011;10595;51.218;3.452;2022-07-24T03:59:01;13.47;;;10.40;;
20870;SDS011;10595;51.218;3.452;2022-07-24T03:59:53;15.33;;;10.73;;
20870;SDS011;10595;51.218;3.452;2022-07-24T04:00:44;17.80;;;11.93;;
20870;SDS011;10595;51.218;3.452;2022-07-24T04:01:35;14.00;;;11.07;;
20870;SDS011;10595;51.218;3.452;2022-07-24T04:02:25;14.60;;;10.87;;
20870;SDS011;10595;51.218;3.452;2022-07-24T04:03:17;14.37;;;10.50;;
20870;SDS011;10595;51.218;3.452;2022-07-24T04:04:08;16.53;;;10.93;;
20870;SDS011;10595;51.218;3.452;2022-07-24T04:05:00;15.37;;;10.60;;
20870;SDS011;10595;51.218;3.452;2022-07-24T04:05:51;19.33;;;10.63;;
20870;SDS011;10595;51.218;3.452;2022-07-24T04:06:45;15.00;;;11.40;;
20870;SDS011;10595;51.218;3.452;2022-07-24T04:07:38;14.53;;;10.70;;
20870;SDS011;10595;51.218;3.452;2022-07-24T04:08:30;16.13;;;11.20;;
20870;SDS011;10595;51.218;3.452;2022-07-24T04:09:21;18.17;;;11.07;;
20870;SDS011;10595;51.218;3.452;2022-07-24T04:10:18;14.73;;;10.97;;
20870;SDS011;10595;51.218;3.452;2022-07-24T04:11:10;14.50;;;10.33;;
20870;SDS011;10595;51.218;3.452;2022-07-24T04:12:01;13.70;;;10.83;;
20870;SDS011;10595;51.218;3.452;2022-07-24T04:12:52;14.43;;;11.07;;
20870;SDS011;10595;51.218;3.452;2022-07-24T04:13:44;13.87;;;10.10;;
20870;SDS011;10595;51.218;3.452;2022-07-24T04:14:34;12.97;;;10.50;;
20870;SDS011;10595;51.218;3.452;2022-07-24T04:15:26;14.30;;;10.57;;
20870;SDS011;10595;51.218;3.452;2022-07-24T04:16:17;14.90;;;10.90;;
20870;SDS011;10595;51.218;3.452;2022-07-24T04:17:11;13.73;;;9.53;;
20870;SDS011;10595;51.218;3.452;2022-07-24T04:18:02;13.13;;;10.47;;
20870;SDS011;10595;51.218;3.452;2022-07-24T04:18:54;15.73;;;10.00;;
20870;SDS011;10595;51.218;3.452;2022-07-24T04:19:46;14.93;;;10.13;;
20870;SDS011;10595;51.218;3.452;2022-07-24T04:20:38;14.87;;;9.67;;
20870;SDS011;10595;51.218;3.452;2022-07-24T04:21:29;14.20;;;11.03;;
20870;SDS011;10595;51.218;3.452;2022-07-24T04:22:21;14.43;;;10.37;;
20870;SDS011;10595;51.218;3.452;2022-07-24T04:23:12;16.17;;;11.70;;
20870;SDS011;10595;51.218;3.452;2022-07-24T04:24:03;12.60;;;9.83;;
20870;SDS011;10595;51.218;3.452;2022-07-24T04:24:54;13.80;;;10.53;;
20870;SDS011;10595;51.218;3.452;2022-07-24T04:25:49;15.50;;;10.67;;
20870;SDS011;10595;51.218;3.452;2022-07-24T04:26:41;15.97;;;10.77;;
20870;SDS011;10595;51.218;3.452;2022-07-24T04:27:33;17.03;;;11.23;;
20870;SDS011;10595;51.218;3.452;2022-07-24T04:28:24;16.50;;;11.50;;
20870;SDS011;10595;51.218;3.452;2022-07-24T04:29:16;15.33;;;11.27;;
20870;SDS011;10595;51.218;3.452;2022-07-24T04:30:07;14.43;;;10.50;;
20870;SDS011;10595;51.218;3.452;2022-07-24T04:30:59;16.57;;;10.77;;
20870;SDS011;10595;51.218;3.452;2022-07-24T04:31:51;13.70;;;10.70;;
20870;SDS011;10595;51.218;3.452;2022-07-24T04:32:42;17.23;;;11.57;;
20870;SDS011;10595;51.218;3.452;2022-07-24T04:33:33;13.50;;;10.73;;
20870;SDS011;10595;51.218;3.452;2022-07-24T04:34:25;16.43;;;11.90;;
20870;SDS011;10595;51.218;3.452;2022-07-24T04:35:16;16.43;;;11.23;;
20870;SDS011;10595;51.218;3.452;2022-07-24T04:36:07;14.30;;;11.43;;
20870;SDS011;10595;51.218;3.452;2022-07-24T04:36:58;14.60;;;10.93;;
20870;SDS011;10595;51.218;3.452;2022-07-24T04:37:49;18.03;;;11.63;;
20870;SDS011;10595;51.218;3.452;2022-07-24T04:38:40;14.23;;;11.27;;
20870;SDS011;10595;51.218;3.452;2022-07-24T04:39:32;17.13;;;11.17;;
20870;SDS011;10595;51.218;3.452;2022-07-24T04:40:22;13.27;;;10.50;;
20870;SDS011;10595;51.218;3.452;2022-07-24T04:41:14;17.53;;;10.53;;
20870;SDS011;10595;51.218;3.452;2022-07-24T04:42:12;15.83;;;10.40;;
20870;SDS011;10595;51.218;3.452;2022-07-24T04:43:06;14.90;;;10.83;;
20870;SDS011;10595;51.218;3.452;2022-07-24T04:43:58;16.03;;;10.27;;
20870;SDS011;10595;51.218;3.452;2022-07-24T04:44:55;14.37;;;10.70;;
20870;SDS011;10595;51.218;3.452;2022-07-24T04:45:48;20.07;;;10.47;;
20870;SDS011;10595;51.218;3.452;2022-07-24T04:46:44;18.13;;;11.37;;
20870;SDS011;10595;51.218;3.452;2022-07-24T04:47:35;14.80;;;10.17;;
20870;SDS011;10595;51.218;3.452;2022-07-24T04:48:27;14.80;;;10.97;;
20870;SDS011;10595;51.218;3.452;2022-07-24T04:49:18;15.23;;;11.13;;
20870;SDS011;10595;51.218;3.452;2022-07-24T04:50:10;15.40;;;11.13;;
20870;SDS011;10595;51.218;3.452;2022-07-24T04:51:01;15.17;;;11.20;;
20870;SDS011;10595;51.218;3.452;2022-07-24T04:51:52;15.17;;;9.43;;
20870;SDS011;10595;51.218;3.452;2022-07-24T04:52:46;18.03;;;11.17;;
20870;SDS011;10595;51.218;3.452;2022-07-24T04:53:38;13.77;;;10.40;;
20870;SDS011;10595;51.218;3.452;2022-07-24T04:54:29;17.07;;;11.03;;
20870;SDS011;10595;51.218;3.452;2022-07-24T04:55:21;14.80;;;10.83;;
20870;SDS011;10595;51.218;3.452;2022-07-24T04:56:11;15.20;;;10.57;;
20870;SDS011;10595;51.218;3.452;2022-07-24T04:57:03;14.17;;;10.77;;
20870;SDS011;10595;51.218;3.452;2022-07-24T04:57:56;16.77;;;10.70;;
20870;SDS011;10595;51.218;3.452;2022-07-24T04:58:47;17.93;;;11.47;;
20870;SDS011;10595;51.218;3.452;2022-07-24T04:59:38;16.97;;;10.63;;
20870;SDS011;10595;51.218;3.452;2022-07-24T05:00:31;11.83;;;10.10;;
20870;SDS011;10595;51.218;3.452;2022-07-24T05:01:21;13.70;;;9.97;;
20870;SDS011;10595;51.218;3.452;2022-07-24T05:02:13;16.90;;;10.67;;
20870;SDS011;10595;51.218;3.452;2022-07-24T05:03:04;13.43;;;10.40;;
20870;SDS011;10595;51.218;3.452;2022-07-24T05:03:56;17.07;;;10.20;;
20870;SDS011;10595;51.218;3.452;2022-07-24T05:04:50;13.57;;;10.07;;